Time;durP1;ratioP1;P1;durP2;ratioP2;P2;SDS_P1;SDS_P2;PMS_P1;PMS_P2;Temp;Humidity;BMP_temperature;BMP_pressure;BME280_temperature;BME280_humidity;BME280_pressure;Samples;Min_cycle;Max_cycle;Signal;HPM_P1;HPM_P2
2022/11/13 00:01:35;;;;;;;;;90.25;81.75;;;;;11.05;100.00;101706.47;6290211;22;45313;-86
2022/11/13 00:04:00;;;;;;;;;90.50;86.25;;;;;11.25;100.00;101753.22;6317541;22;45349;-85
2022/11/13 00:06:28;;;;;;;;;86.50;75.50;;;;;11.04;100.00;101726.00;6289291;22;45490;-86
2022/11/13 00:08:54;;;;;;;;;89.00;81.75;;;;;11.00;100.00;101730.31;6290751;22;45342;-86
2022/11/13 00:11:20;;;;;;;;;90.25;83.50;;;;;11.13;100.00;101760.84;6289913;22;45293;-86
2022/11/13 00:13:47;;;;;;;;;84.75;77.00;;;;;11.12;100.00;101753.72;6318644;22;45334;-87
2022/11/13 00:16:16;;;;;;;;;88.00;76.00;;;;;10.84;100.00;101706.78;6290147;22;46655;-87
2022/11/13 00:18:42;;;;;;;;;83.50;71.25;;;;;10.98;100.00;101734.69;6290733;22;45622;-86
2022/11/13 00:21:19;;;;;;;;;85.50;73.25;;;;;10.91;100.00;101730.06;6290439;22;45818;-86
2022/11/13 00:23:51;;;;;;;;;84.25;70.00;;;;;11.05;100.00;101755.31;6291708;22;45619;-86
2022/11/13 00:26:29;;;;;;;;;87.50;76.25;;;;;10.91;100.00;101738.06;6290316;22;47577;-86
2022/11/13 00:29:00;;;;;;;;;83.50;71.25;;;;;10.68;100.00;101697.47;6291153;22;45656;-86
2022/11/13 00:31:29;;;;;;;;;80.75;69.00;;;;;10.70;100.00;101698.41;6267982;22;45357;-86
2022/11/13 00:33:56;;;;;;;;;83.25;68.00;;;;;10.94;100.00;101752.34;6258961;22;45319;-86
2022/11/13 00:36:27;;;;;;;;;82.00;66.00;;;;;10.81;100.00;101713.84;6260149;22;45280;-85
2022/11/13 00:38:56;;;;;;;;;81.75;68.00;;;;;10.93;100.00;101739.91;6285272;22;44794;-86
2022/11/13 00:41:22;;;;;;;;;80.00;65.25;;;;;10.85;100.00;101720.16;6286301;22;45167;-86
2022/11/13 00:43:51;;;;;;;;;86.25;72.25;;;;;10.82;100.00;101725.38;6259724;22;45370;-86
2022/11/13 00:46:17;;;;;;;;;80.00;66.25;;;;;10.72;100.00;101707.34;6283912;22;47856;-86
2022/11/13 00:48:43;;;;;;;;;81.75;64.75;;;;;10.57;100.00;101690.06;6284935;22;45340;-86
2022/11/13 00:51:09;;;;;;;;;82.25;67.50;;;;;10.77;100.00;101719.03;6284287;22;45337;-86
2022/11/13 00:53:34;;;;;;;;;78.50;66.75;;;;;10.66;100.00;101708.06;6259910;22;44873;-87
2022/11/13 00:56:00;;;;;;;;;82.25;65.00;;;;;10.61;100.00;101699.94;6286925;22;46036;-86
2022/11/13 00:58:25;;;;;;;;;79.00;63.25;;;;;10.66;100.00;101712.47;6284581;22;45227;-86
2022/11/13 01:00:51;;;;;;;;;78.00;61.25;;;;;10.63;100.00;101710.66;6287107;22;45285;-86
2022/11/13 01:03:17;;;;;;;;;79.50;63.50;;;;;10.65;100.00;101706.28;6257672;22;45313;-85
2022/11/13 01:05:44;;;;;;;;;76.00;60.00;;;;;10.65;100.00;101705.38;6259137;22;47162;-86
2022/11/13 01:08:11;;;;;;;;;74.75;60.00;;;;;10.62;100.00;101703.50;6257699;22;45441;-86
2022/11/13 01:10:46;;;;;;;;;81.00;61.75;;;;;10.58;100.00;101693.63;6258657;22;44783;-86
2022/11/13 01:13:12;;;;;;;;;77.25;61.25;;;;;10.48;100.00;101679.16;6285353;22;45387;-86
2022/11/13 01:15:39;;;;;;;;;77.25;62.00;;;;;10.51;100.00;101687.25;6284427;22;46526;-86
2022/11/13 01:18:07;;;;;;;;;75.75;59.00;;;;;10.39;100.00;101668.25;6258552;22;45331;-86
2022/11/13 01:20:34;;;;;;;;;75.00;60.75;;;;;10.47;100.00;101685.34;6257928;22;45455;-87
2022/11/13 01:22:59;;;;;;;;;74.50;59.25;;;;;10.39;100.00;101670.91;6259767;22;45363;-86
2022/11/13 01:25:26;;;;;;;;;72.00;58.75;;;;;10.17;100.00;101633.00;6283569;22;45420;-85
2022/11/13 01:27:52;;;;;;;;;77.25;59.75;;;;;10.41;100.00;101671.88;6258217;22;45699;-86
2022/11/13 01:30:17;;;;;;;;;75.50;59.50;;;;;10.45;100.00;101675.53;6283878;22;45642;-86
2022/11/13 01:32:42;;;;;;;;;76.00;60.00;;;;;10.35;100.00;101653.97;6259649;22;45675;-86
2022/11/13 01:35:08;;;;;;;;;77.00;59.00;;;;;10.44;100.00;101674.59;6286665;22;46314;-86
2022/11/13 01:37:34;;;;;;;;;78.00;60.25;;;;;10.43;100.00;101664.84;6258580;22;45349;-86
2022/11/13 01:39:59;;;;;;;;;72.25;58.00;;;;;10.33;100.00;101649.47;6259240;22;45282;-85
2022/11/13 01:42:25;;;;;;;;;70.00;57.25;;;;;10.39;100.00;101660.28;6284801;22;45286;-86
2022/11/13 01:44:59;;;;;;;;;72.50;57.00;;;;;10.28;100.00;101632.44;6287091;22;46643;-86
2022/11/13 01:47:30;;;;;;;;;73.75;59.25;;;;;10.36;100.00;101654.84;6285137;22;45243;-87
2022/11/13 01:50:00;;;;;;;;;75.50;60.00;;;;;10.41;100.00;101663.88;6286711;22;45387;-86
2022/11/13 01:52:30;;;;;;;;;72.75;57.25;;;;;10.38;100.00;101658.47;6287588;22;45555;-86
2022/11/13 01:55:09;;;;;;;;;74.25;58.75;;;;;10.39;100.00;101657.63;6286027;22;45392;-87
2022/11/13 01:57:35;;;;;;;;;74.75;59.00;;;;;10.36;100.00;101660.19;6286870;22;45370;-86
2022/11/13 02:00:07;;;;;;;;;77.25;61.25;;;;;10.24;100.00;101627.88;6284085;22;45212;-86
2022/11/13 02:02:33;;;;;;;;;74.75;59.00;;;;;10.23;100.00;101626.09;6259319;22;45671;-86
2022/11/13 02:05:08;;;;;;;;;71.50;56.75;;;;;10.24;100.00;101620.84;6258619;22;46886;-86
2022/11/13 02:07:34;;;;;;;;;75.50;58.00;;;;;10.26;100.00;101621.78;6258677;22;45215;-86
2022/11/13 02:10:00;;;;;;;;;70.50;56.00;;;;;10.34;100.00;101629.97;6257920;22;45334;-87
2022/11/13 02:12:35;;;;;;;;;73.75;58.50;;;;;10.39;100.00;101637.25;6284454;22;45188;-86
2022/11/13 02:15:06;;;;;;;;;74.75;58.75;;;;;10.35;100.00;101629.16;6286208;22;45259;-86
2022/11/13 02:18:03;;;;;;;;;72.50;57.25;;;;;10.37;100.00;101625.66;6285223;22;45465;-86
2022/11/13 02:20:34;;;;;;;;;72.00;58.25;;;;;10.36;100.00;101617.63;6250896;22;45303;-86
2022/11/13 02:23:18;;;;;;;;;74.00;57.50;;;;;10.36;100.00;101614.97;6283472;22;45282;-86
2022/11/13 02:25:49;;;;;;;;;74.50;59.00;;;;;10.26;100.00;101605.81;6257039;22;46766;-85
2022/11/13 02:28:14;;;;;;;;;75.50;58.50;;;;;10.20;100.00;101590.59;6282478;22;45372;-86
2022/11/13 02:30:40;;;;;;;;;74.75;58.00;;;;;10.29;100.00;101607.66;6265572;22;45579;-86
2022/11/13 02:33:29;;;;;;;;;73.00;57.50;;;;;10.33;100.00;101620.22;6318052;22;45435;-86
2022/11/13 02:35:55;;;;;;;;;76.25;60.50;;;;;10.27;100.00;101622.66;6316327;22;45833;-86
2022/11/13 02:38:22;;;;;;;;;76.50;60.00;;;;;10.23;100.00;101627.00;6288680;22;45435;-86
2022/11/13 02:40:52;;;;;;;;;76.00;59.50;;;;;10.15;100.00;101626.75;6289597;22;44677;-86
2022/11/13 02:43:17;;;;;;;;;73.25;58.00;;;;;10.09;100.00;101601.75;6290801;22;45330;-86
2022/11/13 02:45:43;;;;;;;;;66.50;54.00;;;;;10.08;100.00;101619.47;6318108;22;45276;-86
2022/11/13 02:48:08;;;;;;;;;74.00;58.00;;;;;10.09;100.00;101623.91;6287972;22;45887;-86
2022/11/13 02:50:35;;;;;;;;;69.75;56.75;;;;;10.09;100.00;101623.03;6290020;22;45346;-86
2022/11/13 02:53:01;;;;;;;;;72.75;57.50;;;;;10.05;100.00;101611.38;6263084;22;45267;-87
2022/11/13 02:55:27;;;;;;;;;70.25;57.50;;;;;10.02;100.00;101612.19;6288610;22;48030;-87
2022/11/13 02:57:52;;;;;;;;;60.00;46.50;;;;;10.06;100.00;101613.22;6315488;22;45461;-87
2022/11/13 03:00:17;;;;;;;;;72.75;56.50;;;;;10.13;100.00;101620.50;6289629;22;45391;-87
2022/11/13 03:02:59;;;;;;;;;73.25;56.25;;;;;10.16;100.00;101619.66;6316396;22;45214;-86
2022/11/13 03:05:24;;;;;;;;;74.00;57.75;;;;;10.17;100.00;101613.50;6316054;22;46148;-87
2022/11/13 03:07:50;;;;;;;;;74.00;58.75;;;;;10.18;100.00;101613.56;6315556;22;45417;-87
2022/11/13 03:10:15;;;;;;;;;77.00;59.75;;;;;10.16;100.00;101609.03;6287627;22;45501;-87
2022/11/13 03:12:41;;;;;;;;;72.50;58.75;;;;;10.17;100.00;101609.09;6290340;22;45333;-87
2022/11/13 03:15:08;;;;;;;;;74.25;58.00;;;;;10.22;100.00;101619.88;6318001;22;45322;-86
2022/11/13 03:17:34;;;;;;;;;72.50;57.00;;;;;10.19;100.00;101623.31;6289970;22;45998;-87
2022/11/13 03:20:00;;;;;;;;;77.75;61.00;;;;;10.18;100.00;101610.91;6292065;22;45365;-86
2022/11/13 03:22:26;;;;;;;;;70.50;55.75;;;;;10.07;100.00;101591.06;6317663;22;45353;-85
2022/11/13 03:24:52;;;;;;;;;72.25;57.00;;;;;10.21;100.00;101618.06;6315268;22;47210;-86
2022/11/13 03:27:28;;;;;;;;;73.00;56.75;;;;;10.18;100.00;101605.59;6289599;22;45249;-87
2022/11/13 03:29:54;;;;;;;;;71.75;54.00;;;;;10.18;100.00;101602.94;6288547;22;45454;-85
2022/11/13 03:32:19;;;;;;;;;74.25;56.00;;;;;10.19;100.00;101595.84;6260429;22;45619;-86
2022/11/13 03:34:45;;;;;;;;;70.00;57.25;;;;;9.91;100.00;101555.16;6287373;22;45312;-86
2022/11/13 03:37:11;;;;;;;;;70.00;55.25;;;;;9.99;100.00;101569.56;6258978;22;45618;-85
2022/11/13 03:39:36;;;;;;;;;65.75;52.25;;;;;10.15;100.00;101591.31;6259138;22;45328;-86
2022/11/13 03:42:02;;;;;;;;;58.50;47.50;;;;;9.99;100.00;101563.38;6286553;22;45492;-87
2022/11/13 03:44:27;;;;;;;;;72.75;56.00;;;;;10.11;100.00;101597.38;6285771;22;46462;-86
2022/11/13 03:46:53;;;;;;;;;71.25;55.75;;;;;10.00;100.00;101579.38;6259756;22;45733;-85
2022/11/13 03:49:18;;;;;;;;;66.50;52.50;;;;;10.06;100.00;101589.28;6259551;22;45295;-86
2022/11/13 03:51:45;;;;;;;;;67.50;55.50;;;;;9.94;100.00;101579.19;6288912;22;44724;-86
2022/11/13 03:54:10;;;;;;;;;67.75;53.75;;;;;9.99;100.00;101595.25;6261389;22;47226;-86
2022/11/13 03:56:36;;;;;;;;;64.25;52.75;;;;;9.66;100.00;101553.53;6262683;22;45682;-85
2022/11/13 03:59:06;;;;;;;;;55.75;45.00;;;;;9.81;100.00;101584.97;6288103;22;45207;-86
2022/11/13 04:01:33;;;;;;;;;60.25;50.25;;;;;9.76;100.00;101575.97;6287496;22;45251;-86
2022/11/13 04:03:58;;;;;;;;;62.67;48.67;;;;;9.77;100.00;101576.00;6287216;22;47147;-87
2022/11/13 04:06:24;;;;;;;;;56.00;43.67;;;;;9.89;100.00;101593.19;6260237;22;45364;-87
2022/11/13 04:12:12;;;;;;;;;58.33;45.67;;;;;9.86;100.00;101590.44;6287649;22;45363;-87
2022/11/13 04:14:38;;;;;;;;;45.67;37.33;;;;;9.82;100.00;101573.50;6286488;22;46628;-87
2022/11/13 04:17:03;;;;;;;;;60.33;48.33;;;;;9.86;100.00;101579.81;6285786;22;45322;-86
2022/11/13 04:19:28;;;;;;;;;50.67;42.67;;;;;9.88;100.00;101570.13;6260589;22;45207;-87
2022/11/13 04:21:55;;;;;;;;;58.33;46.33;;;;;9.91;100.00;101559.59;6285961;22;44944;-86
2022/11/13 04:24:20;;;;;;;;;60.00;48.33;;;;;9.80;100.00;101559.28;6286271;22;46914;-87
2022/11/13 04:26:49;;;;;;;;;62.00;48.67;;;;;9.73;100.00;101551.97;6287456;22;45278;-86
2022/11/13 04:29:18;;;;;;;;;54.67;44.33;;;;;9.87;100.00;101568.31;6259982;22;45480;-86
2022/11/13 04:31:45;;;;;;;;;57.67;45.33;;;;;9.87;100.00;101571.88;6260326;22;45372;-86
2022/11/13 04:34:11;;;;;;;;;53.67;46.00;;;;;9.85;100.00;101564.72;6282792;22;45314;-87
2022/11/13 04:36:37;;;;;;;;;52.33;44.00;;;;;9.84;100.00;101565.56;6284531;22;45244;-87
2022/11/13 04:39:02;;;;;;;;;55.67;46.33;;;;;9.82;100.00;101552.25;6285479;22;45294;-87
2022/11/13 04:44:12;;;;;;;;;54.33;44.33;;;;;9.87;100.00;101541.75;6285909;22;45243;-86
2022/11/13 04:46:37;;;;;;;;;55.67;44.00;;;;;10.00;100.00;101559.88;6260534;22;45531;-87
2022/11/13 04:49:03;;;;;;;;;55.00;44.00;;;;;9.92;100.00;101541.03;6260149;22;45025;-87
2022/11/13 04:51:29;;;;;;;;;58.67;46.33;;;;;10.04;100.00;101553.78;6260654;22;45529;-87
2022/11/13 04:53:55;;;;;;;;;57.33;45.00;;;;;9.84;100.00;101512.41;6286382;22;47133;-87
2022/11/13 04:56:21;;;;;;;;;54.67;45.00;;;;;10.05;100.00;101557.34;6288383;22;45391;-86
2022/11/13 04:58:46;;;;;;;;;58.33;47.33;;;;;10.04;100.00;101553.78;6262412;22;45228;-86
2022/11/13 05:01:11;;;;;;;;;57.33;46.33;;;;;10.03;100.00;101549.31;6260900;22;44816;-86
2022/11/13 05:03:38;;;;;;;;;57.33;42.33;;;;;10.06;100.00;101551.16;6286728;22;47843;-86
2022/11/13 05:06:06;;;;;;;;;54.33;44.67;;;;;10.05;100.00;101555.56;6259659;22;45288;-86
2022/11/13 05:08:33;;;;;;;;;51.00;41.33;;;;;9.85;100.00;101532.84;6287057;22;45247;-85
2022/11/13 05:10:59;;;;;;;;;46.33;41.00;;;;;9.88;100.00;101551.53;6259512;22;45664;-87
2022/11/13 05:13:29;;;;;;;;;55.67;41.67;;;;;9.78;100.00;101543.28;6285980;22;46993;-85
2022/11/13 05:16:03;;;;;;;;;50.33;41.67;;;;;9.91;100.00;101554.28;6259339;22;45170;-85
2022/11/13 05:18:33;;;;;;;;;50.00;38.67;;;;;9.96;100.00;101550.91;6261005;22;44751;-86
2022/11/13 05:20:59;;;;;;;;;54.33;41.00;;;;;10.02;100.00;101548.41;6259942;22;45552;-86
2022/11/13 05:23:25;;;;;;;;;47.00;39.33;;;;;10.10;100.00;101546.00;6283512;22;46998;-86
2022/11/13 05:25:52;;;;;;;;;43.67;39.33;;;;;10.10;100.00;101538.03;6258487;22;45429;-86
2022/11/13 05:28:17;;;;;;;;;53.67;43.67;;;;;10.16;100.00;101540.84;6284032;22;44755;-86
2022/11/13 05:30:43;;;;;;;;;53.33;43.67;;;;;10.16;100.00;101532.88;6264426;22;45460;-86
2022/11/13 05:33:15;;;;;;;;;23.00;20.00;;;;;10.17;100.00;101528.44;6288537;22;46918;-87
2022/11/13 05:35:43;;;;;;;;;53.00;41.00;;;;;10.21;100.00;101533.88;6288950;22;45349;-86
2022/11/13 05:38:08;;;;;;;;;50.67;42.67;;;;;10.10;100.00;101519.41;6318958;22;45278;-86
2022/11/13 05:40:35;;;;;;;;;34.00;27.33;;;;;10.18;100.00;101530.28;6317940;22;45234;-86
2022/11/13 05:43:01;;;;;;;;;51.00;41.33;;;;;10.21;100.00;101531.22;6290364;22;48071;-86
2022/11/13 05:45:26;;;;;;;;;47.67;39.00;;;;;10.14;100.00;101520.38;6291571;22;45193;-86
2022/11/13 05:47:51;;;;;;;;;56.00;45.00;;;;;10.20;100.00;101516.16;6290280;22;45277;-86
2022/11/13 05:50:19;;;;;;;;;58.00;44.00;;;;;10.15;100.00;101517.78;6291188;22;45468;-87
2022/11/13 05:52:45;;;;;;;;;45.67;40.33;;;;;9.98;100.00;101492.50;6291576;22;45302;-87
2022/11/13 05:55:10;;;;;;;;;50.33;39.00;;;;;10.05;100.00;101504.19;6290442;22;46077;-87
2022/11/13 05:57:35;;;;;;;;;51.33;43.33;;;;;10.02;100.00;101494.38;6291003;22;45345;-87
2022/11/13 06:00:01;;;;;;;;;50.67;41.00;;;;;9.98;100.00;101481.88;6290491;22;45826;-86
2022/11/13 06:02:26;;;;;;;;;52.33;42.00;;;;;10.06;100.00;101490.03;6319086;22;45411;-87
2022/11/13 06:04:53;;;;;;;;;47.67;39.33;;;;;10.15;100.00;101498.28;6291243;22;45654;-87
2022/11/13 06:07:19;;;;;;;;;46.00;38.33;;;;;10.17;100.00;101500.09;6294154;22;45359;-86
2022/11/13 06:09:44;;;;;;;;;52.00;42.33;;;;;10.12;100.00;101480.50;6292608;22;45349;-86
2022/11/13 06:12:09;;;;;;;;;50.67;42.00;;;;;10.16;100.00;101487.69;6318727;22;45202;-86
2022/11/13 06:14:35;;;;;;;;;44.00;39.00;;;;;10.15;100.00;101484.97;6292458;22;45310;-86
2022/11/13 06:20:23;;;;;;;;;47.00;42.00;;;;;10.25;100.00;101475.50;6320230;22;45602;-87
2022/11/13 06:22:48;;;;;;;;;50.33;39.33;;;;;10.25;100.00;101472.84;6293727;22;47239;-86
2022/11/13 06:25:14;;;;;;;;;50.67;41.33;;;;;10.24;100.00;101479.00;6292075;22;45331;-87
2022/11/13 06:27:39;;;;;;;;;45.33;39.00;;;;;10.16;100.00;101482.38;6290664;22;45227;-87
2022/11/13 06:30:06;;;;;;;;;54.00;43.33;;;;;10.04;100.00;101455.47;6291064;22;45262;-87
2022/11/13 06:32:37;;;;;;;;;43.00;39.33;;;;;10.13;100.00;101471.63;6317190;22;46926;-86
2022/11/13 06:35:02;;;;;;;;;54.33;39.00;;;;;10.00;100.00;101445.59;6291873;22;44827;-87
2022/11/13 06:37:28;;;;;;;;;42.33;36.67;;;;;10.23;100.00;101478.13;6291376;22;45435;-87
2022/11/13 06:39:53;;;;;;;;;40.00;35.33;;;;;9.98;100.00;101426.94;6318470;22;45513;-87
2022/11/13 06:42:18;;;;;;;;;48.67;41.00;;;;;10.04;100.00;101433.28;6316568;22;45282;-87
2022/11/13 06:44:44;;;;;;;;;42.33;35.00;;;;;10.19;100.00;101461.19;6317579;22;45302;-86
2022/11/13 06:47:09;;;;;;;;;40.33;37.67;;;;;10.25;100.00;101455.13;6289946;22;45262;-86
2022/11/13 06:49:35;;;;;;;;;42.00;37.00;;;;;10.32;100.00;101453.56;6290143;22;45420;-87
2022/11/13 06:52:00;;;;;;;;;45.33;37.00;;;;;10.43;100.00;101461.84;6290290;22;47034;-86
2022/11/13 06:54:26;;;;;;;;;44.33;36.33;;;;;10.27;100.00;101428.59;6290408;22;45361;-86
2022/11/13 06:56:51;;;;;;;;;35.67;33.33;;;;;10.34;100.00;101439.47;6289789;22;45315;-86
2022/11/13 06:59:16;;;;;;;;;38.67;35.00;;;;;10.28;100.00;101433.03;6291288;22;45293;-86
2022/11/13 07:01:43;;;;;;;;;33.00;31.67;;;;;10.26;100.00;101432.09;6288131;22;46795;-86
2022/11/13 07:04:13;;;;;;;;;37.67;35.33;;;;;10.32;100.00;101450.91;6289928;22;45740;-86
2022/11/13 07:06:39;;;;;;;;;42.67;36.33;;;;;10.30;100.00;101461.53;6289378;22;45286;-86
2022/11/13 07:09:04;;;;;;;;;41.67;38.00;;;;;10.23;100.00;101461.28;6316045;22;45665;-86
2022/11/13 07:11:33;;;;;;;;;51.33;39.33;;;;;10.25;100.00;101463.09;6287985;22;46664;-85
2022/11/13 07:17:21;;;;;;;;;48.00;38.67;;;;;10.27;100.00;101469.38;6317099;22;45348;-86
2022/11/13 07:19:46;;;;;;;;;50.00;42.00;;;;;10.28;100.00;101472.91;6317018;22;45342;-86
2022/11/13 07:22:11;;;;;;;;;54.00;41.00;;;;;10.28;100.00;101462.28;6288508;22;46988;-85
2022/11/13 07:24:37;;;;;;;;;49.33;41.00;;;;;10.28;100.00;101465.88;6316392;22;45292;-86
2022/11/13 07:27:02;;;;;;;;;41.67;37.33;;;;;10.29;100.00;101456.13;6286931;22;45251;-87
2022/11/13 07:29:28;;;;;;;;;39.00;34.67;;;;;10.29;100.00;101456.13;6287180;22;45257;-86
2022/11/13 07:31:53;;;;;;;;;47.33;38.33;;;;;10.31;100.00;101460.66;6314409;22;45773;-86
2022/11/13 07:34:19;;;;;;;;;49.00;41.67;;;;;10.13;100.00;101441.50;6289293;22;45419;-86
2022/11/13 07:36:44;;;;;;;;;42.67;38.00;;;;;10.10;100.00;101438.75;6316683;22;45548;-86
2022/11/13 07:39:09;;;;;;;;;39.33;36.67;;;;;10.18;100.00;101442.56;6288807;22;45409;-86
2022/11/13 07:41:36;;;;;;;;;41.67;38.33;;;;;10.17;100.00;101438.97;6317024;22;46881;-86
2022/11/13 07:44:08;;;;;;;;;46.00;38.67;;;;;10.21;100.00;101448.81;6289827;22;45379;-86
2022/11/13 07:46:34;;;;;;;;;33.33;33.33;;;;;10.20;100.00;101447.03;6318164;22;45429;-87
2022/11/13 07:49:00;;;;;;;;;43.00;37.33;;;;;10.25;100.00;101455.13;6289554;22;45369;-86
2022/11/13 07:51:26;;;;;;;;;40.00;35.67;;;;;10.22;100.00;101444.44;6289334;22;47910;-86
2022/11/13 07:53:51;;;;;;;;;46.00;37.67;;;;;10.31;100.00;101451.78;6290902;22;45376;-86
2022/11/13 07:56:16;;;;;;;;;44.67;38.33;;;;;10.35;100.00;101451.00;6317821;22;45348;-86
2022/11/13 07:58:42;;;;;;;;;40.00;37.67;;;;;10.33;100.00;101444.75;6319404;22;45218;-86
2022/11/13 08:01:08;;;;;;;;;43.33;37.00;;;;;10.28;100.00;101431.31;6289813;22;46933;-86
2022/11/13 08:03:34;;;;;;;;;43.33;38.33;;;;;10.36;100.00;101453.69;6290590;22;45318;-87
2022/11/13 08:09:21;;;;;;;;;48.00;37.33;;;;;10.36;100.00;101426.19;6318734;22;45226;-87
2022/11/13 08:11:47;;;;;;;;;42.00;37.00;;;;;10.43;100.00;101432.59;6291466;22;46594;-87
2022/11/13 08:14:13;;;;;;;;;36.33;35.00;;;;;10.36;100.00;101415.56;6319166;22;45298;-87
2022/11/13 08:16:38;;;;;;;;;37.67;33.67;;;;;10.44;100.00;101427.28;6321355;22;45289;-86
2022/11/13 08:19:04;;;;;;;;;36.00;33.67;;;;;10.39;100.00;101418.31;6322017;22;45318;-86
2022/11/13 08:21:29;;;;;;;;;38.00;34.00;;;;;10.43;100.00;101420.19;6291126;22;46541;-86
2022/11/13 08:23:55;;;;;;;;;35.00;33.33;;;;;10.44;100.00;101419.31;6290261;22;45307;-86
2022/11/13 08:26:22;;;;;;;;;33.33;31.33;;;;;10.42;100.00;101415.72;6290460;22;45344;-86
2022/11/13 08:28:47;;;;;;;;;34.67;33.67;;;;;10.45;100.00;101415.81;6291299;22;45230;-86
2022/11/13 08:31:15;;;;;;;;;34.67;30.33;;;;;10.45;100.00;101406.94;6281447;22;47086;-86
2022/11/13 08:33:43;;;;;;;;;40.33;37.33;;;;;10.48;100.00;101404.34;6285253;22;45379;-86
2022/11/13 08:36:10;;;;;;;;;42.33;35.00;;;;;10.53;100.00;101414.22;6262041;22;45200;-87
2022/11/13 08:38:36;;;;;;;;;45.00;37.00;;;;;10.54;100.00;101410.72;6287144;22;45372;-86
2022/11/13 08:41:05;;;;;;;;;39.33;34.00;;;;;10.43;100.00;101379.41;6288777;22;45299;-87
2022/11/13 08:43:30;;;;;;;;;43.00;37.00;;;;;10.57;100.00;101400.16;6288557;22;45354;-86
2022/11/13 08:45:56;;;;;;;;;41.33;37.33;;;;;10.59;100.00;101402.84;6288493;22;45288;-86
2022/11/13 08:48:23;;;;;;;;;52.00;35.67;;;;;10.56;100.00;101377.09;6261469;22;44859;-86
2022/11/13 08:50:53;;;;;;;;;34.67;30.00;;;;;10.66;100.00;101390.59;6259123;22;48120;-86
2022/11/13 08:53:22;;;;;;;;;36.67;35.00;;;;;10.63;100.00;101382.56;6259114;22;45363;-88
2022/11/13 08:55:47;;;;;;;;;30.67;30.67;;;;;10.70;100.00;101389.81;6287295;22;45304;-86
2022/11/13 08:58:16;;;;;;;;;32.00;31.00;;;;;10.75;100.00;101389.06;6259182;22;45798;-86
2022/11/13 09:00:42;;;;;;;;;33.00;29.33;;;;;10.83;100.00;101394.56;6288086;22;45226;-86
2022/11/13 09:03:09;;;;;;;;;37.00;35.00;;;;;10.75;100.00;101378.41;6287794;22;45210;-86
2022/11/13 09:05:35;;;;;;;;;31.00;31.00;;;;;10.91;100.00;101387.66;6260536;22;44678;-87
2022/11/13 09:08:02;;;;;;;;;37.67;31.67;;;;;10.92;100.00;101384.13;6285102;22;45380;-87
2022/11/13 09:10:28;;;;;;;;;36.00;31.00;;;;;11.04;100.00;101396.81;6260136;22;45437;-87
2022/11/13 09:13:01;;;;;;;;;26.67;26.67;;;;;11.09;100.00;101399.56;6261943;22;45542;-87
2022/11/13 09:15:29;;;;;;;;;29.00;29.00;;;;;11.15;100.00;101389.06;6260980;22;45669;-87
2022/11/13 09:17:58;;;;;;;;;31.67;28.33;;;;;11.21;100.00;101394.53;6260519;22;45265;-87
2022/11/13 09:20:24;;;;;;;;;32.00;29.00;;;;;11.12;100.00;101362.38;6259030;22;47394;-88
2022/11/13 09:22:58;;;;;;;;;39.67;35.00;;;;;11.31;100.00;101384.97;6283735;22;45365;-88
2022/11/13 09:25:24;;;;;;;;;27.67;27.33;;;;;11.33;100.00;101383.22;6283779;22;45362;-87
2022/11/13 09:27:58;;;;;;;;;26.00;25.33;;;;;11.34;100.00;101385.03;6286175;22;45393;-87
2022/11/13 09:30:24;;;;;;;;;33.67;32.00;;;;;11.36;100.00;101378.00;6285875;22;45283;-87
2022/11/13 09:32:55;;;;;;;;;33.33;31.67;;;;;11.31;100.00;101363.66;6313370;22;45736;-87
2022/11/13 09:35:34;;;;;;;;;35.67;31.33;;;;;11.41;100.00;101370.97;6290003;22;45310;-87
2022/11/13 09:38:06;;;;;;;;;34.00;32.00;;;;;11.44;100.00;101365.72;6290408;22;45279;-87
2022/11/13 09:41:12;;;;;;;;;33.00;31.67;;;;;11.48;100.00;101372.91;6291035;22;48151;-87
2022/11/13 09:43:53;;;;;;;;;35.33;31.67;;;;;11.56;100.00;101370.41;6290184;22;45325;-87
2022/11/13 09:47:00;;;;;;;;;39.00;33.33;;;;;11.58;100.00;101352.69;6293118;22;45218;-87
2022/11/13 09:49:33;;;;;;;;;34.67;32.33;;;;;11.55;100.00;101339.28;6320566;22;45246;-87
2022/11/13 09:52:13;;;;;;;;;34.33;30.33;;;;;11.58;100.00;101332.25;6318156;22;46319;-87
2022/11/13 09:54:38;;;;;;;;;32.00;29.67;;;;;11.43;100.00;101300.00;6317250;22;45221;-87
2022/11/13 09:57:27;;;;;;;;;34.00;29.67;;;;;11.77;100.00;101354.81;6290873;22;44812;-87
2022/11/13 10:00:19;;;;;;;;;32.00;31.33;;;;;11.82;100.00;101352.28;6161153;23;45513;-87
2022/11/13 10:02:53;;;;;;;;;31.00;29.33;;;;;11.87;100.00;101360.34;6161425;23;46944;-86
2022/11/13 10:05:40;;;;;;;;;31.33;31.33;;;;;11.89;100.00;101354.19;6136208;23;45442;-86
2022/11/13 10:08:10;;;;;;;;;30.00;30.00;;;;;11.93;100.00;101355.16;6162539;23;45213;-87
2022/11/13 10:10:52;;;;;;;;;40.67;33.67;;;;;11.80;100.00;101332.69;6161535;23;45608;-87
2022/11/13 10:13:47;;;;;;;;;31.33;29.00;;;;;11.87;100.00;101323.03;6135050;23;46796;-87
2022/11/13 10:16:28;;;;;;;;;35.67;32.67;;;;;11.88;100.00;101315.06;6159365;23;45412;-87
2022/11/13 10:19:04;;;;;;;;;35.67;29.33;;;;;11.79;100.00;101297.13;6135566;23;45604;-87
2022/11/13 10:21:47;;;;;;;;;33.67;33.00;;;;;11.84;100.00;101297.22;6160836;23;45533;-87
2022/11/13 10:24:27;;;;;;;;;36.00;34.00;;;;;12.01;100.00;101321.53;6135875;23;46865;-86
2022/11/13 10:26:58;;;;;;;;;41.00;36.33;;;;;12.11;100.00;101323.47;6135411;23;46096;-86
2022/11/13 10:29:28;;;;;;;;;40.00;36.00;;;;;12.25;100.00;101325.50;6160452;23;45280;-86
2022/11/13 10:32:00;;;;;;;;;37.33;35.67;;;;;12.24;100.00;101323.69;6159683;23;45523;-86
2022/11/13 10:34:33;;;;;;;;;35.33;32.33;;;;;12.32;100.00;101332.72;6136433;23;45297;-87
2022/11/13 10:37:19;;;;;;;;;37.67;34.67;;;;;12.31;100.00;101321.16;6217575;22;45217;-87
2022/11/13 10:39:44;;;;;;;;;37.00;33.33;;;;;12.25;100.00;101293.50;6290366;22;45482;-87
2022/11/13 10:42:28;;;;;;;;;43.67;36.67;;;;;12.23;100.00;101268.56;6292168;22;45495;-86
2022/11/13 10:44:59;;;;;;;;;37.67;34.00;;;;;12.56;100.00;101306.44;6318707;22;45292;-87
2022/11/13 10:47:28;;;;;;;;;45.67;37.33;;;;;12.61;100.00;101304.72;6320470;22;44712;-87
2022/11/13 10:49:54;;;;;;;;;29.33;27.67;;;;;12.41;100.00;101258.19;6265651;22;45107;-87
2022/11/13 10:52:46;;;;;;;;;35.33;31.67;;;;;12.69;100.00;101298.63;6290077;22;45243;-87
2022/11/13 10:55:34;;;;;;;;;34.33;29.67;;;;;12.79;100.00;101290.75;6267462;22;47002;-87
2022/11/13 10:58:03;;;;;;;;;43.67;36.00;;;;;12.86;100.00;101289.06;6285487;22;45383;-86
2022/11/13 11:00:34;;;;;;;;;40.67;36.33;;;;;12.91;100.00;101287.34;6315499;22;45352;-86
2022/11/13 11:03:00;;;;;;;;;36.00;33.33;;;;;12.93;100.00;101276.69;6314021;22;45309;-86
2022/11/13 11:05:27;;;;;;;;;37.33;34.00;;;;;12.86;100.00;101262.34;6288025;22;46957;-87
2022/11/13 11:07:54;;;;;;;;;34.00;31.67;;;;;12.94;100.00;101266.03;6289205;22;45372;-86
2022/11/13 11:10:22;;;;;;;;;38.67;35.33;;;;;13.07;100.00;101271.50;6287966;22;45201;-86
2022/11/13 11:12:58;;;;;;;;;43.67;36.33;;;;;13.12;100.00;101275.16;6288502;22;44732;-86
2022/11/13 11:15:46;;;;;;;;;36.67;33.67;;;;;13.17;100.00;101266.31;6314052;22;47348;-86
2022/11/13 11:18:29;;;;;;;;;32.33;31.33;;;;;13.23;100.00;101267.25;6315616;22;45249;-87
2022/11/13 11:21:04;;;;;;;;;39.67;32.33;;;;;13.20;100.00;101260.09;6317016;22;45340;-87
2022/11/13 11:23:51;;;;;;;;;33.67;32.00;;;;;13.29;100.00;101252.25;6290304;22;45520;-87
2022/11/13 11:26:48;;;;;;;;;38.00;35.00;;;;;13.36;100.00;101258.53;6288353;22;45771;-86